Time;durP1;ratioP1;P1;durP2;ratioP2;P2;SDS_P1;SDS_P2;PMS_P1;PMS_P2;Temp;Humidity;BMP_temperature;BMP_pressure;BME280_temperature;BME280_humidity;BME280_pressure;Samples;Min_cycle;Max_cycle;Signal;HPM_P1;HPM_P2
2021/12/26 00:01:00;;;;;;;;;;;;;;;;;;5032622;28;19932;-81
2021/12/26 00:03:27;;;;;;;;;;;;;;;;;;5052262;28;19963;-81
2021/12/26 00:05:55;;;;;;;;;;;;;;;;;;5052846;28;19913;-82
2021/12/26 00:08:20;;;;;;;;;;;;;;;;;;5053225;28;20365;-81
2021/12/26 00:10:48;;;;;;;;;;;;;;;;;;5053692;28;19912;-80
2021/12/26 00:13:17;;;;;;;;;;;;;;;;;;5050853;28;19979;-81
2021/12/26 00:15:45;;;;;;;;;;;;;;;;;;5033679;28;20258;-80
2021/12/26 00:18:10;;;;;;;;;;;;;;;;;;5032900;28;20362;-81
2021/12/26 00:20:36;;;;;;;;;;;;;;;;;;5039167;28;19925;-83
2021/12/26 00:23:04;;;;;;;;;;;;;;;;;;5033766;28;20304;-81
2021/12/26 00:25:29;;;;;;;;;;;;;;;;;;5043026;28;19929;-81
2021/12/26 00:27:55;;;;;;;;;;;;;;;;;;5056336;28;19913;-81
2021/12/26 00:30:20;;;;;;;;;;;;;;;;;;5040285;28;19917;-81
2021/12/26 00:32:46;;;;;;;;;;;;;;;;;;5035044;28;20475;-81
2021/12/26 00:35:12;;;;;;;;;;;;;;;;;;5036063;28;19970;-80
2021/12/26 00:37:37;;;;;;;;;;;;;;;;;;5036091;28;20008;-80
2021/12/26 00:40:03;;;;;;;;;;;;;;;;;;5040677;28;19944;-80
2021/12/26 00:42:31;;;;;;;;;;;;;;;;;;5056133;28;20343;-80
2021/12/26 00:44:56;;;;;;;;;;;;;;;;;;5040480;28;19917;-80
2021/12/26 00:47:21;;;;;;;;;;;;;;;;;;5036105;28;20305;-80
2021/12/26 00:49:49;;;;;;;;;;;;;;;;;;5039738;28;20342;-80
2021/12/26 00:52:14;;;;;;;;;;;;;;;;;;5056811;28;19917;-80
2021/12/26 00:54:39;;;;;;;;;;;;;;;;;;5053506;28;20243;-81
2021/12/26 00:57:05;;;;;;;;;;;;;;;;;;5036811;28;20368;-81
2021/12/26 00:59:32;;;;;;;;;;;;;;;;;;5036265;28;20319;-80
2021/12/26 01:01:57;;;;;;;;;;;;;;;;;;5035113;28;20261;-80
2021/12/26 01:04:23;;;;;;;;;;;;;;;;;;5037607;28;19924;-80
2021/12/26 01:06:51;;;;;;;;;;;;;;;;;;5052864;28;20537;-80
2021/12/26 01:09:22;;;;;;;;;;;;;;;;;;5056222;28;19916;-80
2021/12/26 01:11:52;;;;;;;;;;;;;;;;;;5015833;28;19918;-81
2021/12/26 01:14:28;;;;;;;;;;;;;;;;;;5044294;28;20317;-80
2021/12/26 01:17:03;;;;;;;;;;;;;;;;;;5033609;28;20254;-80
2021/12/26 01:19:34;;;;;;;;;;;;;;;;;;5037961;28;20397;-80
2021/12/26 01:21:59;;;;;;;;;;;;;;;;;;5018220;28;19963;-81
2021/12/26 01:24:24;;;;;;;;;;;;;;;;;;5017176;28;19913;-81
2021/12/26 01:26:50;;;;;;;;;;;;;;;;;;5055866;28;19924;-80
2021/12/26 01:29:17;;;;;;;;;;;;;;;;;;5052652;28;19943;-82
2021/12/26 01:31:42;;;;;;;;;;;;;;;;;;5055040;28;20341;-82
2021/12/26 01:34:08;;;;;;;;;;;;;;;;;;5055346;28;19974;-82
2021/12/26 01:36:34;;;;;;;;;;;;;;;;;;5055886;28;19912;-82
2021/12/26 01:39:01;;;;;;;;;;;;;;;;;;5054718;28;20429;-81
2021/12/26 01:41:27;;;;;;;;;;;;;;;;;;5055269;28;19927;-81
2021/12/26 01:43:56;;;;;;;;;;;;;;;;;;5044355;28;19917;-82
2021/12/26 01:46:28;;;;;;;;;;;;;;;;;;5035632;28;20306;-80
2021/12/26 01:49:07;;;;;;;;;;;;;;;;;;5035271;28;19920;-81
2021/12/26 01:51:32;;;;;;;;;;;;;;;;;;5039749;28;19928;-80
2021/12/26 01:54:03;;;;;;;;;;;;;;;;;;5050775;28;19921;-81
2021/12/26 01:56:29;;;;;;;;;;;;;;;;;;5054779;28;20653;-81
2021/12/26 01:58:56;;;;;;;;;;;;;;;;;;5035651;28;19917;-81
2021/12/26 02:01:23;;;;;;;;;;;;;;;;;;5034112;28;20393;-80
2021/12/26 02:03:49;;;;;;;;;;;;;;;;;;5034990;28;20015;-81
2021/12/26 02:06:16;;;;;;;;;;;;;;;;;;5034669;28;19953;-80
2021/12/26 02:08:42;;;;;;;;;;;;;;;;;;5019689;28;19924;-81
2021/12/26 02:11:07;;;;;;;;;;;;;;;;;;5034459;28;19913;-81
2021/12/26 02:13:43;;;;;;;;;;;;;;;;;;5047771;28;19917;-81
2021/12/26 02:16:08;;;;;;;;;;;;;;;;;;5055316;28;19983;-81
2021/12/26 02:18:37;;;;;;;;;;;;;;;;;;5040443;28;19999;-80
2021/12/26 02:23:42;;;;;;;;;;;;;;;;;;5050528;28;19956;-81
2021/12/26 02:28:36;;;;;;;;;;;;;;;;;;5036732;28;20016;-81
2021/12/26 02:31:02;;;;;;;;;;;;;;;;;;5034164;28;19996;-80
2021/12/26 02:33:27;;;;;;;;;;;;;;;;;;5033978;28;19935;-81
2021/12/26 02:35:53;;;;;;;;;;;;;;;;;;5014276;28;19943;-81
2021/12/26 02:38:18;;;;;;;;;;;;;;;;;;5013025;28;19921;-81
2021/12/26 02:40:44;;;;;;;;;;;;;;;;;;5034745;28;20409;-81
2021/12/26 02:43:09;;;;;;;;;;;;;;;;;;5034142;28;20358;-82
2021/12/26 02:45:37;;;;;;;;;;;;;;;;;;5033843;28;19912;-81
2021/12/26 02:48:03;;;;;;;;;;;;;;;;;;5037017;28;19956;-81
2021/12/26 02:50:29;;;;;;;;;;;;;;;;;;5034462;28;20024;-81
2021/12/26 02:52:55;;;;;;;;;;;;;;;;;;5044386;28;19923;-82
2021/12/26 02:55:21;;;;;;;;;;;;;;;;;;5053703;28;20000;-81
2021/12/26 02:57:47;;;;;;;;;;;;;;;;;;5044194;28;19913;-82
2021/12/26 03:00:13;;;;;;;;;;;;;;;;;;5033035;28;19979;-82
2021/12/26 03:02:42;;;;;;;;;;;;;;;;;;5040798;28;20354;-81
2021/12/26 03:05:07;;;;;;;;;;;;;;;;;;5052612;28;20260;-81
2021/12/26 03:07:38;;;;;;;;;;;;;;;;;;5048480;28;19917;-81
2021/12/26 03:10:03;;;;;;;;;;;;;;;;;;5034427;28;19913;-81
2021/12/26 03:12:33;;;;;;;;;;;;;;;;;;5029988;28;19921;-81
2021/12/26 03:14:58;;;;;;;;;;;;;;;;;;5029866;28;19913;-81
2021/12/26 03:17:24;;;;;;;;;;;;;;;;;;5046924;28;19925;-81
2021/12/26 03:19:49;;;;;;;;;;;;;;;;;;5016682;28;19964;-81
2021/12/26 03:22:18;;;;;;;;;;;;;;;;;;5039861;28;19916;-80
2021/12/26 03:24:44;;;;;;;;;;;;;;;;;;5054208;28;19913;-80
2021/12/26 03:27:12;;;;;;;;;;;;;;;;;;5052538;28;20367;-80
2021/12/26 03:29:37;;;;;;;;;;;;;;;;;;5054197;28;20353;-80
2021/12/26 03:32:02;;;;;;;;;;;;;;;;;;5039285;28;19917;-80
2021/12/26 03:34:28;;;;;;;;;;;;;;;;;;5033695;28;20281;-80
2021/12/26 03:36:56;;;;;;;;;;;;;;;;;;5033274;28;19984;-80
2021/12/26 03:39:23;;;;;;;;;;;;;;;;;;5033768;28;19929;-80
2021/12/26 03:41:49;;;;;;;;;;;;;;;;;;5034153;28;19928;-80
2021/12/26 03:44:17;;;;;;;;;;;;;;;;;;5016638;28;19913;-80
2021/12/26 03:46:43;;;;;;;;;;;;;;;;;;5033999;28;19921;-80
2021/12/26 03:49:08;;;;;;;;;;;;;;;;;;5033937;28;20351;-80
2021/12/26 03:51:34;;;;;;;;;;;;;;;;;;5032694;28;19917;-80
2021/12/26 03:53:59;;;;;;;;;;;;;;;;;;5033010;28;19914;-80
2021/12/26 03:56:25;;;;;;;;;;;;;;;;;;5033614;28;20047;-80
2021/12/26 03:58:50;;;;;;;;;;;;;;;;;;5034335;28;20289;-80
2021/12/26 04:01:18;;;;;;;;;;;;;;;;;;5034198;28;19920;-80
2021/12/26 04:03:43;;;;;;;;;;;;;;;;;;5038794;28;19917;-80
2021/12/26 04:06:08;;;;;;;;;;;;;;;;;;5038303;28;20122;-80
2021/12/26 04:08:36;;;;;;;;;;;;;;;;;;5036921;28;19913;-80
2021/12/26 04:11:01;;;;;;;;;;;;;;;;;;5053101;28;19916;-79
2021/12/26 04:13:26;;;;;;;;;;;;;;;;;;5056832;28;19913;-80
2021/12/26 04:15:52;;;;;;;;;;;;;;;;;;5050891;28;19994;-80
2021/12/26 04:18:17;;;;;;;;;;;;;;;;;;5038495;28;19913;-79
2021/12/26 04:20:42;;;;;;;;;;;;;;;;;;5041988;28;19953;-79
2021/12/26 04:23:12;;;;;;;;;;;;;;;;;;5017153;28;19913;-80
2021/12/26 04:25:37;;;;;;;;;;;;;;;;;;5037680;28;19913;-79
2021/12/26 04:28:02;;;;;;;;;;;;;;;;;;5049178;28;19959;-79
2021/12/26 04:30:28;;;;;;;;;;;;;;;;;;5046102;28;19917;-80
2021/12/26 04:32:54;;;;;;;;;;;;;;;;;;5036548;28;20342;-80
2021/12/26 04:35:19;;;;;;;;;;;;;;;;;;5043107;28;20334;-80
2021/12/26 04:37:44;;;;;;;;;;;;;;;;;;5057032;28;20006;-79
2021/12/26 04:40:10;;;;;;;;;;;;;;;;;;5041912;28;20044;-80
2021/12/26 04:42:37;;;;;;;;;;;;;;;;;;5038002;28;19968;-80
2021/12/26 04:45:07;;;;;;;;;;;;;;;;;;5037661;28;19917;-80
2021/12/26 04:47:32;;;;;;;;;;;;;;;;;;5036960;28;19963;-79
2021/12/26 04:49:58;;;;;;;;;;;;;;;;;;5036356;28;19945;-79
2021/12/26 04:52:23;;;;;;;;;;;;;;;;;;5036309;28;19913;-79
2021/12/26 04:54:52;;;;;;;;;;;;;;;;;;5036437;28;19944;-79
2021/12/26 04:57:18;;;;;;;;;;;;;;;;;;5036758;28;19913;-79
2021/12/26 04:59:43;;;;;;;;;;;;;;;;;;5036984;28;19948;-79
2021/12/26 05:02:09;;;;;;;;;;;;;;;;;;5033864;28;19924;-79
2021/12/26 05:04:35;;;;;;;;;;;;;;;;;;5029395;28;19913;-80
2021/12/26 05:07:00;;;;;;;;;;;;;;;;;;5053923;28;20342;-80
2021/12/26 05:09:25;;;;;;;;;;;;;;;;;;5055344;28;20011;-80
2021/12/26 05:11:53;;;;;;;;;;;;;;;;;;5036331;28;19916;-80
2021/12/26 05:14:21;;;;;;;;;;;;;;;;;;5036012;28;19928;-81
2021/12/26 05:16:48;;;;;;;;;;;;;;;;;;5040442;28;20338;-81
2021/12/26 05:19:13;;;;;;;;;;;;;;;;;;5036221;28;19912;-80
2021/12/26 05:21:38;;;;;;;;;;;;;;;;;;5036829;28;19921;-80
2021/12/26 05:24:04;;;;;;;;;;;;;;;;;;5035392;28;19952;-80
2021/12/26 05:26:29;;;;;;;;;;;;;;;;;;5035528;28;19932;-80
2021/12/26 05:28:56;;;;;;;;;;;;;;;;;;5036208;28;19917;-80
2021/12/26 05:31:22;;;;;;;;;;;;;;;;;;5036445;28;20382;-80
2021/12/26 05:33:47;;;;;;;;;;;;;;;;;;5051475;28;19967;-80
2021/12/26 05:36:12;;;;;;;;;;;;;;;;;;5054439;28;20353;-80
2021/12/26 05:38:37;;;;;;;;;;;;;;;;;;5055772;28;20000;-81
2021/12/26 05:41:02;;;;;;;;;;;;;;;;;;5054466;28;19921;-81
2021/12/26 05:43:30;;;;;;;;;;;;;;;;;;5039450;28;19944;-81
2021/12/26 05:45:55;;;;;;;;;;;;;;;;;;5038813;28;20339;-81
2021/12/26 05:48:20;;;;;;;;;;;;;;;;;;5035841;28;19949;-81
2021/12/26 05:50:46;;;;;;;;;;;;;;;;;;5035448;28;19925;-81
2021/12/26 05:53:11;;;;;;;;;;;;;;;;;;5035779;28;19913;-81
2021/12/26 05:55:36;;;;;;;;;;;;;;;;;;5035943;28;20393;-81
2021/12/26 05:58:01;;;;;;;;;;;;;;;;;;5035514;28;19956;-81
2021/12/26 06:00:27;;;;;;;;;;;;;;;;;;5034811;28;20015;-81
2021/12/26 06:02:54;;;;;;;;;;;;;;;;;;5035563;28;20006;-81
2021/12/26 06:05:20;;;;;;;;;;;;;;;;;;5035807;28;20278;-81
2021/12/26 06:07:45;;;;;;;;;;;;;;;;;;5035492;28;19913;-81
2021/12/26 06:10:10;;;;;;;;;;;;;;;;;;5035758;28;19940;-81
2021/12/26 06:12:36;;;;;;;;;;;;;;;;;;5035273;28;19932;-81
2021/12/26 06:15:01;;;;;;;;;;;;;;;;;;5038397;28;20009;-81
2021/12/26 06:17:26;;;;;;;;;;;;;;;;;;5036065;28;19924;-81
2021/12/26 06:19:52;;;;;;;;;;;;;;;;;;5036681;28;19931;-81
2021/12/26 06:22:17;;;;;;;;;;;;;;;;;;5034451;28;19913;-81
2021/12/26 06:24:42;;;;;;;;;;;;;;;;;;5034729;28;19913;-81
2021/12/26 06:27:07;;;;;;;;;;;;;;;;;;5034939;28;20515;-80
2021/12/26 06:29:33;;;;;;;;;;;;;;;;;;5035240;28;19913;-79
2021/12/26 06:32:00;;;;;;;;;;;;;;;;;;5038547;28;20099;-79
2021/12/26 06:34:26;;;;;;;;;;;;;;;;;;5034076;28;19913;-79
2021/12/26 06:36:51;;;;;;;;;;;;;;;;;;5022593;28;19967;-79
2021/12/26 06:39:17;;;;;;;;;;;;;;;;;;5034753;28;19932;-80
2021/12/26 06:41:42;;;;;;;;;;;;;;;;;;5050348;28;19920;-79
2021/12/26 06:44:08;;;;;;;;;;;;;;;;;;5054831;28;19913;-79
2021/12/26 06:46:36;;;;;;;;;;;;;;;;;;5051942;28;19927;-81
2021/12/26 06:49:01;;;;;;;;;;;;;;;;;;5054708;28;20002;-80
2021/12/26 06:51:27;;;;;;;;;;;;;;;;;;5053973;28;20268;-80
2021/12/26 06:53:54;;;;;;;;;;;;;;;;;;5044999;28;19925;-79
2021/12/26 06:56:22;;;;;;;;;;;;;;;;;;5033377;28;19960;-80
2021/12/26 06:58:47;;;;;;;;;;;;;;;;;;5034780;28;19928;-79
2021/12/26 07:01:13;;;;;;;;;;;;;;;;;;5033490;28;20349;-80
2021/12/26 07:03:38;;;;;;;;;;;;;;;;;;5035925;28;20400;-81
2021/12/26 07:06:05;;;;;;;;;;;;;;;;;;5013973;28;20418;-80
2021/12/26 07:08:32;;;;;;;;;;;;;;;;;;5021833;28;19960;-80
2021/12/26 07:10:57;;;;;;;;;;;;;;;;;;5033141;28;19927;-80
2021/12/26 07:13:25;;;;;;;;;;;;;;;;;;5038099;28;19916;-80
2021/12/26 07:15:50;;;;;;;;;;;;;;;;;;5054014;28;20353;-80
2021/12/26 07:18:15;;;;;;;;;;;;;;;;;;5049298;28;19917;-80
2021/12/26 07:20:40;;;;;;;;;;;;;;;;;;5034375;28;19913;-80
2021/12/26 07:23:06;;;;;;;;;;;;;;;;;;5027315;28;20008;-83
2021/12/26 07:25:31;;;;;;;;;;;;;;;;;;5034950;28;19917;-80
2021/12/26 07:27:56;;;;;;;;;;;;;;;;;;5033859;28;20353;-79
2021/12/26 07:30:21;;;;;;;;;;;;;;;;;;5054100;28;19913;-79
2021/12/26 07:32:47;;;;;;;;;;;;;;;;;;5053441;28;19913;-79
2021/12/26 07:35:14;;;;;;;;;;;;;;;;;;5034741;28;19928;-79
2021/12/26 07:37:39;;;;;;;;;;;;;;;;;;5032127;28;20370;-79
2021/12/26 07:40:05;;;;;;;;;;;;;;;;;;5053493;28;19943;-79
2021/12/26 07:42:30;;;;;;;;;;;;;;;;;;5053943;28;20239;-79
2021/12/26 07:44:55;;;;;;;;;;;;;;;;;;5035922;28;19928;-78
2021/12/26 07:47:21;;;;;;;;;;;;;;;;;;5034009;28;20004;-79
2021/12/26 07:49:46;;;;;;;;;;;;;;;;;;5050479;28;19917;-79
2021/12/26 07:52:15;;;;;;;;;;;;;;;;;;5048438;28;19917;-79
2021/12/26 07:54:42;;;;;;;;;;;;;;;;;;5033494;28;20035;-79
2021/12/26 07:57:07;;;;;;;;;;;;;;;;;;5033601;28;20350;-79
2021/12/26 07:59:34;;;;;;;;;;;;;;;;;;5034580;28;19921;-79
2021/12/26 08:02:00;;;;;;;;;;;;;;;;;;5034386;28;19921;-79
2021/12/26 08:04:26;;;;;;;;;;;;;;;;;;5033871;28;19978;-78
2021/12/26 08:06:52;;;;;;;;;;;;;;;;;;5034783;28;19917;-78
2021/12/26 08:09:18;;;;;;;;;;;;;;;;;;5034002;28;19991;-78
2021/12/26 08:11:43;;;;;;;;;;;;;;;;;;5033913;28;20481;-78
2021/12/26 08:14:09;;;;;;;;;;;;;;;;;;5033657;28;19920;-78
2021/12/26 08:16:34;;;;;;;;;;;;;;;;;;5033377;28;19917;-78
2021/12/26 08:18:59;;;;;;;;;;;;;;;;;;5033834;28;19936;-79
2021/12/26 08:21:25;;;;;;;;;;;;;;;;;;5033607;28;20254;-78
2021/12/26 08:23:50;;;;;;;;;;;;;;;;;;5033789;28;19924;-78
2021/12/26 08:26:15;;;;;;;;;;;;;;;;;;5053583;28;19917;-78
2021/12/26 08:28:41;;;;;;;;;;;;;;;;;;5053283;28;19962;-79
2021/12/26 08:31:06;;;;;;;;;;;;;;;;;;5032881;28;20239;-79
2021/12/26 08:33:35;;;;;;;;;;;;;;;;;;5053243;28;20354;-79
2021/12/26 08:36:04;;;;;;;;;;;;;;;;;;5053428;28;19924;-79
2021/12/26 08:38:30;;;;;;;;;;;;;;;;;;5034384;28;19936;-79
2021/12/26 08:40:58;;;;;;;;;;;;;;;;;;5033399;28;20358;-79
2021/12/26 08:43:26;;;;;;;;;;;;;;;;;;5050310;28;20400;-79
2021/12/26 08:45:53;;;;;;;;;;;;;;;;;;5046814;28;20369;-79
2021/12/26 08:48:18;;;;;;;;;;;;;;;;;;5035216;28;19916;-79
2021/12/26 08:50:44;;;;;;;;;;;;;;;;;;5037299;28;19921;-79
2021/12/26 08:53:12;;;;;;;;;;;;;;;;;;5019558;28;19917;-79
2021/12/26 08:55:37;;;;;;;;;;;;;;;;;;5037285;28;19917;-79
2021/12/26 08:58:06;;;;;;;;;;;;;;;;;;5046809;28;19930;-79
2021/12/26 09:00:32;;;;;;;;;;;;;;;;;;5056421;28;20361;-78
2021/12/26 09:03:04;;;;;;;;;;;;;;;;;;5056374;28;19912;-79
2021/12/26 09:05:29;;;;;;;;;;;;;;;;;;5054275;28;19913;-79
2021/12/26 09:07:54;;;;;;;;;;;;;;;;;;5055968;28;19978;-79
2021/12/26 09:10:20;;;;;;;;;;;;;;;;;;5044876;28;19917;-79
2021/12/26 09:12:45;;;;;;;;;;;;;;;;;;5036641;28;19917;-78
2021/12/26 09:15:11;;;;;;;;;;;;;;;;;;5036596;28;19991;-79
2021/12/26 09:17:36;;;;;;;;;;;;;;;;;;5035796;28;20250;-80
2021/12/26 09:20:01;;;;;;;;;;;;;;;;;;5055342;28;19917;-79
2021/12/26 09:22:27;;;;;;;;;;;;;;;;;;5051160;28;19924;-79
2021/12/26 09:24:52;;;;;;;;;;;;;;;;;;5036166;28;19941;-80
2021/12/26 09:27:20;;;;;;;;;;;;;;;;;;5036355;28;19913;-79
2021/12/26 09:29:47;;;;;;;;;;;;;;;;;;5036646;28;19940;-79
2021/12/26 09:32:15;;;;;;;;;;;;;;;;;;5036318;28;20355;-79
2021/12/26 09:34:42;;;;;;;;;;;;;;;;;;5052551;28;20286;-79
2021/12/26 09:37:08;;;;;;;;;;;;;;;;;;5055244;28;19913;-79
2021/12/26 09:39:35;;;;;;;;;;;;;;;;;;5036824;28;20254;-79
2021/12/26 09:42:01;;;;;;;;;;;;;;;;;;5036114;28;19931;-79
2021/12/26 09:44:28;;;;;;;;;;;;;;;;;;5035394;28;19925;-79
2021/12/26 09:46:54;;;;;;;;;;;;;;;;;;5036052;28;19913;-79
2021/12/26 09:49:21;;;;;;;;;;;;;;;;;;5049631;28;19921;-79
2021/12/26 09:51:47;;;;;;;;;;;;;;;;;;5053245;28;19913;-79
2021/12/26 09:54:12;;;;;;;;;;;;;;;;;;5039815;28;19927;-79
2021/12/26 09:56:38;;;;;;;;;;;;;;;;;;5035921;28;20354;-79
2021/12/26 09:59:05;;;;;;;;;;;;;;;;;;5047483;28;19917;-79
2021/12/26 10:01:30;;;;;;;;;;;;;;;;;;5055571;28;20031;-79
2021/12/26 10:03:56;;;;;;;;;;;;;;;;;;5044060;28;20274;-79
2021/12/26 10:06:21;;;;;;;;;;;;;;;;;;5034555;28;20464;-79
2021/12/26 10:08:56;;;;;;;;;;;;;;;;;;5034764;28;19914;-79
2021/12/26 10:11:23;;;;;;;;;;;;;;;;;;5035658;28;19913;-79
2021/12/26 10:13:54;;;;;;;;;;;;;;;;;;5032657;28;19917;-79
2021/12/26 10:16:20;;;;;;;;;;;;;;;;;;5035734;28;19917;-79
2021/12/26 10:18:46;;;;;;;;;;;;;;;;;;5034996;28;19917;-79
2021/12/26 10:21:27;;;;;;;;;;;;;;;;;;5034479;28;20017;-79
2021/12/26 10:23:53;;;;;;;;;;;;;;;;;;5034654;28;19921;-79
2021/12/26 10:26:22;;;;;;;;;;;;;;;;;;5035283;28;20404;-79
2021/12/26 10:29:06;;;;;;;;;;;;;;;;;;5041340;28;19917;-79
2021/12/26 10:31:34;;;;;;;;;;;;;;;;;;5052675;28;19912;-79
2021/12/26 10:34:04;;;;;;;;;;;;;;;;;;5014503;28;19935;-79
2021/12/26 10:36:30;;;;;;;;;;;;;;;;;;5016109;28;19918;-79
2021/12/26 10:39:07;;;;;;;;;;;;;;;;;;5034417;28;20296;-79
2021/12/26 10:41:32;;;;;;;;;;;;;;;;;;5038381;28;19971;-79
2021/12/26 10:43:57;;;;;;;;;;;;;;;;;;5052563;28;19917;-80
2021/12/26 10:46:22;;;;;;;;;;;;;;;;;;5038653;28;19940;-80
2021/12/26 10:48:50;;;;;;;;;;;;;;;;;;5034620;28;20333;-80
2021/12/26 10:51:34;;;;;;;;;;;;;;;;;;5034186;28;19913;-80
2021/12/26 10:54:16;;;;;;;;;;;;;;;;;;5036260;28;19949;-80
2021/12/26 10:56:41;;;;;;;;;;;;;;;;;;5053809;28;19913;-79
2021/12/26 10:59:16;;;;;;;;;;;;;;;;;;5048554;28;19924;-80
2021/12/26 11:01:41;;;;;;;;;;;;;;;;;;5033185;28;20442;-80
2021/12/26 11:04:07;;;;;;;;;;;;;;;;;;5037846;28;19955;-80
2021/12/26 11:06:32;;;;;;;;;;;;;;;;;;5033995;28;19913;-80
2021/12/26 11:08:58;;;;;;;;;;;;;;;;;;5033906;28;20359;-81
2021/12/26 11:11:26;;;;;;;;;;;;;;;;;;5033433;28;19924;-81
2021/12/26 11:14:00;;;;;;;;;;;;;;;;;;5035590;28;19917;-81
2021/12/26 11:16:35;;;;;;;;;;;;;;;;;;5052859;28;20247;-81
2021/12/26 11:19:00;;;;;;;;;;;;;;;;;;5049785;28;20257;-82
2021/12/26 11:21:25;;;;;;;;;;;;;;;;;;5033614;28;19935;-80
2021/12/26 11:23:50;;;;;;;;;;;;;;;;;;5032899;28;20015;-80
2021/12/26 11:26:17;;;;;;;;;;;;;;;;;;5033651;28;20354;-80
2021/12/26 11:28:44;;;;;;;;;;;;;;;;;;5032557;28;19917;-81
2021/12/26 11:31:17;;;;;;;;;;;;;;;;;;5033503;28;19913;-80
2021/12/26 11:33:45;;;;;;;;;;;;;;;;;;5051416;28;19970;-80
2021/12/26 11:36:13;;;;;;;;;;;;;;;;;;5035983;28;20330;-79
2021/12/26 11:38:39;;;;;;;;;;;;;;;;;;4972337;28;1771510;-79
2021/12/26 11:41:05;;;;;;;;;;;;;;;;;;5033122;28;19921;-79
2021/12/26 11:43:39;;;;;;;;;;;;;;;;;;5037076;28;20346;-79
2021/12/26 11:46:10;;;;;;;;;;;;;;;;;;5032838;28;19932;-79
2021/12/26 11:48:41;;;;;;;;;;;;;;;;;;5034195;28;19924;-79
2021/12/26 11:51:15;;;;;;;;;;;;;;;;;;5034077;28;19920;-79
2021/12/26 11:53:43;;;;;;;;;;;;;;;;;;5034527;28;20228;-79
2021/12/26 11:56:11;;;;;;;;;;;;;;;;;;5033885;28;20358;-80
2021/12/26 11:58:55;;;;;;;;;;;;;;;;;;5051286;28;20365;-79
2021/12/26 12:01:21;;;;;;;;;;;;;;;;;;5036888;28;20262;-79
2021/12/26 12:03:46;;;;;;;;;;;;;;;;;;5034682;28;20000;-80
2021/12/26 12:06:25;;;;;;;;;;;;;;;;;;5034093;28;19913;-80
2021/12/26 12:08:50;;;;;;;;;;;;;;;;;;5035474;28;19932;-80
2021/12/26 12:11:15;;;;;;;;;;;;;;;;;;5017069;28;20251;-80
2021/12/26 12:13:42;;;;;;;;;;;;;;;;;;5033798;28;20393;-80
2021/12/26 12:16:09;;;;;;;;;;;;;;;;;;5033209;28;19923;-80
2021/12/26 12:18:38;;;;;;;;;;;;;;;;;;5043096;28;20305;-80
2021/12/26 12:21:07;;;;;;;;;;;;;;;;;;5033784;28;19960;-79
2021/12/26 12:23:33;;;;;;;;;;;;;;;;;;5035303;28;19917;-77
2021/12/26 12:25:58;;;;;;;;;;;;;;;;;;5039028;28;19979;-77
2021/12/26 12:28:25;;;;;;;;;;;;;;;;;;5038023;28;20039;-77
2021/12/26 12:31:09;;;;;;;;;;;;;;;;;;5037994;28;19913;-76
2021/12/26 12:33:35;;;;;;;;;;;;;;;;;;5037197;28;19955;-78
2021/12/26 12:36:05;;;;;;;;;;;;;;;;;;5036460;28;19914;-79
2021/12/26 12:38:34;;;;;;;;;;;;;;;;;;5054517;28;19924;-78
2021/12/26 12:41:12;;;;;;;;;;;;;;;;;;5046072;28;20550;-78
2021/12/26 12:43:47;;;;;;;;;;;;;;;;;;5021547;28;19970;-78
2021/12/26 12:46:15;;;;;;;;;;;;;;;;;;5036822;28;19921;-78
2021/12/26 12:48:45;;;;;;;;;;;;;;;;;;5056899;28;19916;-78
2021/12/26 12:51:19;;;;;;;;;;;;;;;;;;5056079;28;19917;-78
2021/12/26 12:53:58;;;;;;;;;;;;;;;;;;5041605;28;19978;-77
2021/12/26 12:56:26;;;;;;;;;;;;;;;;;;5036474;28;19925;-77
2021/12/26 12:58:52;;;;;;;;;;;;;;;;;;5037840;28;19972;-78
2021/12/26 13:01:23;;;;;;;;;;;;;;;;;;5055719;28;19925;-78
2021/12/26 13:03:56;;;;;;;;;;;;;;;;;;5040528;28;19916;-78
2021/12/26 13:06:21;;;;;;;;;;;;;;;;;;5052763;28;19923;-78
2021/12/26 13:08:49;;;;;;;;;;;;;;;;;;5035052;28;19917;-78
2021/12/26 13:11:16;;;;;;;;;;;;;;;;;;5019606;28;19917;-79
2021/12/26 13:13:43;;;;;;;;;;;;;;;;;;5052493;28;19917;-78
2021/12/26 13:16:08;;;;;;;;;;;;;;;;;;5056463;28;19912;-78
2021/12/26 13:18:35;;;;;;;;;;;;;;;;;;5037096;28;19924;-78
2021/12/26 13:21:06;;;;;;;;;;;;;;;;;;5035300;28;19943;-79
2021/12/26 13:23:32;;;;;;;;;;;;;;;;;;5037281;28;19917;-78
2021/12/26 13:26:00;;;;;;;;;;;;;;;;;;5049057;28;19935;-79
2021/12/26 13:28:27;;;;;;;;;;;;;;;;;;5036641;28;20378;-79
2021/12/26 13:30:55;;;;;;;;;;;;;;;;;;5029421;28;20354;-78
2021/12/26 13:33:24;;;;;;;;;;;;;;;;;;5025020;28;19921;-77
2021/12/26 13:35:50;;;;;;;;;;;;;;;;;;5024174;28;19921;-77
2021/12/26 13:38:15;;;;;;;;;;;;;;;;;;5023145;28;19932;-78
2021/12/26 13:40:45;;;;;;;;;;;;;;;;;;5026686;28;19940;-78
2021/12/26 13:43:11;;;;;;;;;;;;;;;;;;5027735;28;19921;-78
2021/12/26 13:45:42;;;;;;;;;;;;;;;;;;5029867;28;19936;-77
2021/12/26 13:48:28;;;;;;;;;;;;;;;;;;5026895;28;19917;-78
2021/12/26 13:50:55;;;;;;;;;;;;;;;;;;5029522;28;19917;-78
2021/12/26 13:53:23;;;;;;;;;;;;;;;;;;5024774;28;20010;-78
2021/12/26 13:55:54;;;;;;;;;;;;;;;;;;5030316;28;19945;-76
2021/12/26 13:58:19;;;;;;;;;;;;;;;;;;5028998;28;19917;-76
2021/12/26 14:00:46;;;;;;;;;;;;;;;;;;5033835;28;20419;-76
2021/12/26 14:03:11;;;;;;;;;;;;;;;;;;5028498;28;19928;-77
2021/12/26 14:05:39;;;;;;;;;;;;;;;;;;5023452;28;19913;-77
2021/12/26 14:08:12;;;;;;;;;;;;;;;;;;5024081;28;19928;-77
2021/12/26 14:10:39;;;;;;;;;;;;;;;;;;5026173;28;20071;-76
2021/12/26 14:13:11;;;;;;;;;;;;;;;;;;5025384;28;19921;-77
2021/12/26 14:15:47;;;;;;;;;;;;;;;;;;5026489;28;20301;-76
2021/12/26 14:18:18;;;;;;;;;;;;;;;;;;5025925;28;19959;-76
2021/12/26 14:20:49;;;;;;;;;;;;;;;;;;5029986;28;19921;-76
2021/12/26 14:23:20;;;;;;;;;;;;;;;;;;5025564;28;19967;-76
2021/12/26 14:25:46;;;;;;;;;;;;;;;;;;5031009;28;20012;-77
2021/12/26 14:28:12;;;;;;;;;;;;;;;;;;5028507;28;19952;-79
2021/12/26 14:30:40;;;;;;;;;;;;;;;;;;5023339;28;20047;-78
2021/12/26 14:33:05;;;;;;;;;;;;;;;;;;5026521;28;19971;-78
2021/12/26 14:35:31;;;;;;;;;;;;;;;;;;5024009;28;20315;-77
2021/12/26 14:38:13;;;;;;;;;;;;;;;;;;5030321;28;19932;-79
2021/12/26 14:40:56;;;;;;;;;;;;;;;;;;5022752;28;19921;-78
2021/12/26 14:43:24;;;;;;;;;;;;;;;;;;5029284;28;19921;-78
2021/12/26 14:45:57;;;;;;;;;;;;;;;;;;5030046;28;20461;-77
2021/12/26 14:48:23;;;;;;;;;;;;;;;;;;5028627;28;20003;-78
2021/12/26 14:50:49;;;;;;;;;;;;;;;;;;5021238;28;19913;-78
2021/12/26 14:53:14;;;;;;;;;;;;;;;;;;5025119;28;20270;-77
2021/12/26 14:56:02;;;;;;;;;;;;;;;;;;5029113;28;19944;-79
2021/12/26 14:58:39;;;;;;;;;;;;;;;;;;5020904;28;19928;-79
2021/12/26 15:01:09;;;;;;;;;;;;;;;;;;5028375;28;19937;-79
2021/12/26 15:03:35;;;;;;;;;;;;;;;;;;5027992;28;19917;-76
2021/12/26 15:06:12;;;;;;;;;;;;;;;;;;5024241;28;19913;-76
2021/12/26 15:08:40;;;;;;;;;;;;;;;;;;5024816;28;20355;-77
2021/12/26 15:11:06;;;;;;;;;;;;;;;;;;5023646;28;19922;-77
2021/12/26 15:13:36;;;;;;;;;;;;;;;;;;5025213;28;19928;-75
2021/12/26 15:16:04;;;;;;;;;;;;;;;;;;5023585;28;20403;-75
2021/12/26 15:18:29;;;;;;;;;;;;;;;;;;5021086;28;19985;-76
2021/12/26 15:21:01;;;;;;;;;;;;;;;;;;5026202;28;19933;-75
2021/12/26 15:23:35;;;;;;;;;;;;;;;;;;5025269;28;19927;-76
2021/12/26 15:26:12;;;;;;;;;;;;;;;;;;5023538;28;20350;-76
2021/12/26 15:28:53;;;;;;;;;;;;;;;;;;5025985;28;19917;-76
2021/12/26 15:31:49;;;;;;;;;;;;;;;;;;5024037;28;20377;-75
2021/12/26 15:34:21;;;;;;;;;;;;;;;;;;5023746;28;19917;-77
2021/12/26 15:36:46;;;;;;;;;;;;;;;;;;5025107;28;19925;-76
2021/12/26 15:39:21;;;;;;;;;;;;;;;;;;5025602;28;19921;-77
2021/12/26 15:41:53;;;;;;;;;;;;;;;;;;5021435;28;20017;-76
2021/12/26 15:44:26;;;;;;;;;;;;;;;;;;5024807;28;19917;-76
2021/12/26 15:46:54;;;;;;;;;;;;;;;;;;5021620;28;19939;-76
2021/12/26 15:49:20;;;;;;;;;;;;;;;;;;5030620;28;19917;-77
2021/12/26 15:51:47;;;;;;;;;;;;;;;;;;5021900;28;20000;-77
2021/12/26 15:54:18;;;;;;;;;;;;;;;;;;5026831;28;19932;-81
2021/12/26 15:56:43;;;;;;;;;;;;;;;;;;5015876;28;20300;-78
2021/12/26 15:59:12;;;;;;;;;;;;;;;;;;5035006;28;19917;-79
2021/12/26 16:01:41;;;;;;;;;;;;;;;;;;5016865;28;19921;-79
2021/12/26 16:04:11;;;;;;;;;;;;;;;;;;5041708;28;19917;-77
2021/12/26 16:06:37;;;;;;;;;;;;;;;;;;5040763;28;19921;-76
2021/12/26 16:09:07;;;;;;;;;;;;;;;;;;5032952;28;19931;-76
2021/12/26 16:11:35;;;;;;;;;;;;;;;;;;5036913;28;19956;-78
2021/12/26 16:14:01;;;;;;;;;;;;;;;;;;5039988;28;20326;-76
2021/12/26 16:16:28;;;;;;;;;;;;;;;;;;5037413;28;19913;-77
2021/12/26 16:18:58;;;;;;;;;;;;;;;;;;5035887;28;19917;-75
2021/12/26 16:21:26;;;;;;;;;;;;;;;;;;5052498;28;20373;-76
2021/12/26 16:23:51;;;;;;;;;;;;;;;;;;5038935;28;20015;-76
2021/12/26 16:26:16;;;;;;;;;;;;;;;;;;5037097;28;20438;-76
2021/12/26 16:28:41;;;;;;;;;;;;;;;;;;5037269;28;19913;-76
2021/12/26 16:31:07;;;;;;;;;;;;;;;;;;5036677;28;19917;-76
2021/12/26 16:33:33;;;;;;;;;;;;;;;;;;5030954;28;19928;-77
2021/12/26 16:36:02;;;;;;;;;;;;;;;;;;5038973;28;20338;-77
2021/12/26 16:38:28;;;;;;;;;;;;;;;;;;5036297;28;20281;-77
2021/12/26 16:40:53;;;;;;;;;;;;;;;;;;5024540;28;19921;-77
2021/12/26 16:43:19;;;;;;;;;;;;;;;;;;5036594;28;19917;-77
2021/12/26 16:45:46;;;;;;;;;;;;;;;;;;5036877;28;20350;-77
2021/12/26 16:48:12;;;;;;;;;;;;;;;;;;5037079;28;19954;-76
2021/12/26 16:50:40;;;;;;;;;;;;;;;;;;5032464;28;19995;-75
2021/12/26 16:53:09;;;;;;;;;;;;;;;;;;5025288;28;20322;-76